Time,TemperatureF,DewpointF,PressureIn,WindDirection,WindDirectionDegrees,WindSpeedMPH,WindSpeedGustMPH,Humidity,HourlyPrecipIn,Conditions,Clouds,dailyrainin,SolarRadiationWatts/m^2,SoftwareType,DateUTC
2013-07-04 00:01:00,74.1,72.9,30.12,South,169,3.0,8.0,96,0.00,,,0.99,0,Wunderground v.1.15,2013-07-04 04:01:00,
2013-07-04 00:02:00,74.1,72.9,30.12,South,169,3.0,8.0,96,0.00,,,0.99,0,Wunderground v.1.15,2013-07-04 04:02:00,
2013-07-04 00:06:00,74.1,72.9,30.12,South,169,3.0,8.0,96,0.00,,,0.99,0,Wunderground v.1.15,2013-07-04 04:06:00,
2013-07-04 00:07:00,74.1,72.9,30.12,South,169,3.0,8.0,96,0.00,,,0.99,0,Wunderground v.1.15,2013-07-04 04:07:00,
2013-07-04 00:10:00,74.0,72.8,30.12,South,169,2.0,2.0,96,0.00,,,0.99,0,Wunderground v.1.15,2013-07-04 04:10:00,
2013-07-04 00:16:00,74.0,72.8,30.12,South,169,2.0,6.0,96,0.00,,,0.99,0,Wunderground v.1.15,2013-07-04 04:16:00,
2013-07-04 00:21:00,74.0,72.8,30.12,SSE,165,3.0,6.0,96,0.00,,,0.99,0,Wunderground v.1.15,2013-07-04 04:21:00,
2013-07-04 00:27:00,74.0,72.8,30.12,SSE,163,3.0,6.0,96,0.00,,,0.99,0,Wunderground v.1.15,2013-07-04 04:27:00,
2013-07-04 00:33:00,73.9,72.7,30.12,SSE,161,3.0,6.0,96,0.00,,,0.99,0,Wunderground v.1.15,2013-07-04 04:33:00,
2013-07-04 00:38:00,73.9,72.7,30.12,SSE,161,2.0,6.0,96,0.00,,,0.00,0,Wunderground v.1.15,2013-07-04 04:38:00,
2013-07-04 00:43:00,73.9,72.7,30.12,SSE,161,2.0,6.0,96,0.00,,,0.00,0,Wunderground v.1.15,2013-07-04 04:43:00,
2013-07-04 00:49:00,73.8,72.6,30.12,SSE,161,3.0,6.0,96,0.00,,,0.00,0,Wunderground v.1.15,2013-07-04 04:49:00,
2013-07-04 00:54:00,73.8,72.6,30.12,SSE,161,3.0,6.0,96,0.00,,,0.00,0,Wunderground v.1.15,2013-07-04 04:54:00,
2013-07-04 00:59:00,73.8,72.6,30.12,SSE,161,3.0,6.0,96,0.00,,,0.00,0,Wunderground v.1.15,2013-07-04 04:59:00,
2013-07-04 01:05:00,73.8,72.6,30.12,SSE,153,3.0,6.0,96,0.00,,,0.00,0,Wunderground v.1.15,2013-07-04 05:05:00,
2013-07-04 01:10:00,73.8,72.6,30.12,SE,146,4.0,4.0,96,0.00,,,0.00,0,Wunderground v.1.15,2013-07-04 05:10:00,
2013-07-04 01:15:00,73.8,72.9,30.12,SE,144,3.0,6.0,97,0.00,,,0.00,0,Wunderground v.1.15,2013-07-04 05:15:00,
2013-07-04 01:21:00,73.9,73.0,30.12,SE,144,3.0,6.0,97,0.00,,,0.00,0,Wunderground v.1.15,2013-07-04 05:21:00,
2013-07-04 01:26:00,74.0,73.1,30.12,SE,144,3.0,6.0,97,0.00,,,0.00,0,Wunderground v.1.15,2013-07-04 05:26:00,
2013-07-04 01:31:00,74.1,73.2,30.12,SE,144,4.0,6.0,97,0.00,,,0.00,0,Wunderground v.1.15,2013-07-04 05:31:00,
2013-07-04 01:37:00,74.3,73.4,30.12,SE,144,5.0,7.0,97,0.00,,,0.00,0,Wunderground v.1.15,2013-07-04 05:37:00,
2013-07-04 01:42:00,74.2,73.3,30.11,SE,144,5.0,6.0,97,0.00,,,0.00,0,Wunderground v.1.15,2013-07-04 05:42:00,
2013-07-04 01:47:00,74.2,73.0,30.11,SE,144,5.0,6.0,96,0.00,,,0.00,0,Wunderground v.1.15,2013-07-04 05:47:00,
2013-07-04 01:52:00,74.2,73.3,30.11,SE,144,4.0,6.0,97,0.00,,,0.00,0,Wunderground v.1.15,2013-07-04 05:52:00,
2013-07-04 01:58:00,74.2,73.3,30.11,SE,144,4.0,6.0,97,0.00,,,0.00,0,Wunderground v.1.15,2013-07-04 05:58:00,
2013-07-04 02:03:00,74.1,73.2,30.11,SE,144,4.0,7.0,97,0.00,,,0.00,0,Wunderground v.1.15,2013-07-04 06:03:00,
2013-07-04 02:09:00,74.1,73.2,30.10,SE,144,3.0,7.0,97,0.00,,,0.01,0,Wunderground v.1.15,2013-07-04 06:09:00,
2013-07-04 02:15:00,74.1,73.2,30.10,SE,144,3.0,7.0,97,0.00,,,0.01,0,Wunderground v.1.15,2013-07-04 06:15:00,
2013-07-04 02:20:00,74.0,73.1,30.10,SE,144,3.0,7.0,97,0.00,,,0.01,0,Wunderground v.1.15,2013-07-04 06:20:00,
2013-07-04 02:25:00,74.0,73.1,30.09,SE,144,3.0,7.0,97,0.00,,,0.01,0,Wunderground v.1.15,2013-07-04 06:25:00,
2013-07-04 02:31:00,74.0,73.1,30.10,SE,144,3.0,7.0,97,0.00,,,0.01,0,Wunderground v.1.15,2013-07-04 06:31:00,
2013-07-04 02:36:00,73.9,73.0,30.09,SE,144,3.0,7.0,97,0.00,,,0.01,0,Wunderground v.1.15,2013-07-04 06:36:00,
2013-07-04 02:41:00,74.0,73.1,30.09,SE,144,3.0,7.0,97,0.00,,,0.01,0,Wunderground v.1.15,2013-07-04 06:41:00,
2013-07-04 02:47:00,74.0,73.1,30.08,SE,144,4.0,7.0,97,0.00,,,0.01,0,Wunderground v.1.15,2013-07-04 06:47:00,
2013-07-04 02:52:00,74.0,73.1,30.08,SE,144,4.0,7.0,97,0.00,,,0.01,0,Wunderground v.1.15,2013-07-04 06:52:00,
2013-07-04 02:57:00,74.0,73.1,30.08,SE,144,4.0,7.0,97,0.00,,,0.01,0,Wunderground v.1.15,2013-07-04 06:57:00,
2013-07-04 03:03:00,74.0,73.1,30.08,SE,144,3.0,8.0,97,0.00,,,0.01,0,Wunderground v.1.15,2013-07-04 07:03:00,
2013-07-04 03:08:00,74.1,73.2,30.08,SE,144,3.0,8.0,97,0.00,,,0.01,0,Wunderground v.1.15,2013-07-04 07:08:00,
2013-07-04 03:13:00,74.2,73.3,30.08,SE,144,4.0,8.0,97,0.00,,,0.01,0,Wunderground v.1.15,2013-07-04 07:13:00,
2013-07-04 03:19:00,74.1,73.2,30.08,SE,144,4.0,8.0,97,0.00,,,0.01,0,Wunderground v.1.15,2013-07-04 07:19:00,
2013-07-04 03:25:00,74.1,73.2,30.08,SE,144,4.0,8.0,97,0.00,,,0.01,0,Wunderground v.1.15,2013-07-04 07:25:00,
2013-07-04 03:30:00,74.2,73.3,30.08,SE,144,3.0,3.0,97,0.00,,,0.01,0,Wunderground v.1.15,2013-07-04 07:30:00,
2013-07-04 03:35:00,74.1,73.2,30.08,SE,144,3.0,8.0,97,0.00,,,0.01,0,Wunderground v.1.15,2013-07-04 07:35:00,
2013-07-04 03:41:00,74.0,73.1,30.07,SE,144,3.0,8.0,97,0.00,,,0.01,0,Wunderground v.1.15,2013-07-04 07:41:00,
2013-07-04 03:46:00,74.1,73.2,30.07,SE,144,3.0,8.0,97,0.00,,,0.01,0,Wunderground v.1.15,2013-07-04 07:46:00,
2013-07-04 03:51:00,74.0,73.1,30.07,SE,144,3.0,8.0,97,0.00,,,0.01,0,Wunderground v.1.15,2013-07-04 07:51:00,
2013-07-04 03:57:00,74.0,73.1,30.07,SE,144,2.0,8.0,97,0.00,,,0.01,0,Wunderground v.1.15,2013-07-04 07:57:00,
2013-07-04 04:02:00,74.0,73.1,30.07,SE,144,1.0,8.0,97,0.00,,,0.01,0,Wunderground v.1.15,2013-07-04 08:02:00,
2013-07-04 04:07:00,73.9,73.0,30.07,SE,144,2.0,8.0,97,0.00,,,0.01,0,Wunderground v.1.15,2013-07-04 08:07:00,
2013-07-04 04:13:00,73.8,72.9,30.06,SE,144,2.0,6.0,97,0.00,,,0.01,0,Wunderground v.1.15,2013-07-04 08:13:00,
2013-07-04 04:18:00,73.7,72.8,30.06,SE,144,3.0,6.0,97,0.00,,,0.01,0,Wunderground v.1.15,2013-07-04 08:18:00,
2013-07-04 04:23:00,73.7,72.8,30.06,SE,144,3.0,6.0,97,0.00,,,0.01,0,Wunderground v.1.15,2013-07-04 08:23:00,
2013-07-04 04:29:00,73.7,72.8,30.06,SE,144,3.0,6.0,97,0.00,,,0.01,0,Wunderground v.1.15,2013-07-04 08:29:00,
2013-07-04 04:34:00,73.7,72.8,30.07,SE,144,2.0,6.0,97,0.00,,,0.01,0,Wunderground v.1.15,2013-07-04 08:34:00,
2013-07-04 04:39:00,73.8,72.9,30.07,SE,144,2.0,6.0,97,0.00,,,0.01,0,Wunderground v.1.15,2013-07-04 08:39:00,
2013-07-04 04:44:00,73.8,72.9,30.07,SE,144,2.0,6.0,97,0.00,,,0.01,0,Wunderground v.1.15,2013-07-04 08:44:00,
2013-07-04 04:50:00,73.8,72.9,30.07,SE,144,2.0,6.0,97,0.00,,,0.01,0,Wunderground v.1.15,2013-07-04 08:50:00,
2013-07-04 04:55:00,73.7,72.8,30.08,SE,144,3.0,6.0,97,0.00,,,0.01,0,Wunderground v.1.15,2013-07-04 08:55:00,
2013-07-04 05:00:00,73.7,72.8,30.08,SE,144,3.0,3.0,97,0.00,,,0.01,0,Wunderground v.1.15,2013-07-04 09:00:00,
2013-07-04 05:06:00,73.7,72.8,30.08,SE,144,3.0,7.0,97,0.00,,,0.01,0,Wunderground v.1.15,2013-07-04 09:06:00,
2013-07-04 05:11:00,73.7,72.8,30.08,SE,144,3.0,7.0,97,0.00,,,0.01,0,Wunderground v.1.15,2013-07-04 09:11:00,
2013-07-04 05:17:00,73.6,72.7,30.08,SE,144,3.0,7.0,97,0.00,,,0.01,0,Wunderground v.1.15,2013-07-04 09:17:00,
2013-07-04 05:22:00,73.5,72.6,30.08,SE,144,2.0,7.0,97,0.00,,,0.01,0,Wunderground v.1.15,2013-07-04 09:22:00,
2013-07-04 05:27:00,73.5,72.6,30.08,SE,144,3.0,7.0,97,0.00,,,0.01,0,Wunderground v.1.15,2013-07-04 09:27:00,
2013-07-04 05:32:00,73.5,72.6,30.08,SE,144,2.0,7.0,97,0.00,,,0.01,0,Wunderground v.1.15,2013-07-04 09:32:00,
2013-07-04 05:38:00,73.4,72.5,30.08,SE,144,2.0,7.0,97,0.00,,,0.01,0,Wunderground v.1.15,2013-07-04 09:38:00,
2013-07-04 05:43:00,73.4,72.5,30.08,SE,144,3.0,7.0,97,0.00,,,0.01,0,Wunderground v.1.15,2013-07-04 09:43:00,
2013-07-04 05:48:00,73.4,72.5,30.08,SE,144,2.0,7.0,97,0.00,,,0.01,0,Wunderground v.1.15,2013-07-04 09:48:00,
2013-07-04 05:54:00,73.3,72.4,30.08,SE,144,2.0,7.0,97,0.00,,,0.01,0,Wunderground v.1.15,2013-07-04 09:54:00,
2013-07-04 05:59:00,73.2,72.3,30.08,SE,144,1.0,7.0,97,0.00,,,0.01,0,Wunderground v.1.15,2013-07-04 09:59:00,
2013-07-04 06:04:00,73.2,72.3,30.08,SE,144,2.0,7.0,97,0.00,,,0.01,0,Wunderground v.1.15,2013-07-04 10:04:00,
2013-07-04 06:10:00,73.1,72.2,30.08,SE,144,1.0,1.0,97,0.00,,,0.01,0,Wunderground v.1.15,2013-07-04 10:10:00,
2013-07-04 06:15:00,73.1,72.2,30.08,SE,144,1.0,5.0,97,0.00,,,0.01,0,Wunderground v.1.15,2013-07-04 10:15:00,
2013-07-04 06:20:00,73.0,72.1,30.08,SE,144,1.0,1.0,97,0.00,,,0.01,0,Wunderground v.1.15,2013-07-04 10:20:00,
2013-07-04 06:25:00,73.0,72.1,30.08,SE,144,1.0,5.0,97,0.00,,,0.01,0,Wunderground v.1.15,2013-07-04 10:25:00,
2013-07-04 06:31:00,73.0,72.1,30.09,SE,144,0.0,5.0,97,0.00,,,0.01,0,Wunderground v.1.15,2013-07-04 10:31:00,
2013-07-04 06:36:00,73.0,72.1,30.09,SE,144,0.0,5.0,97,0.00,,,0.01,7,Wunderground v.1.15,2013-07-04 10:36:00,
2013-07-04 06:41:00,73.0,72.4,30.09,SE,144,0.0,5.0,98,0.00,,,0.01,11,Wunderground v.1.15,2013-07-04 10:41:00,
2013-07-04 06:47:00,73.1,72.5,30.09,SE,144,0.0,5.0,98,0.00,,,0.01,16,Wunderground v.1.15,2013-07-04 10:47:00,
2013-07-04 06:52:00,73.1,72.5,30.09,SE,144,0.0,5.0,98,0.00,,,0.01,21,Wunderground v.1.15,2013-07-04 10:52:00,
2013-07-04 06:57:00,73.1,72.5,30.09,SE,144,0.0,5.0,98,0.00,,,0.01,25,Wunderground v.1.15,2013-07-04 10:57:00,
2013-07-04 07:03:00,73.1,72.5,30.09,SE,144,0.0,5.0,98,0.00,,,0.01,39,Wunderground v.1.15,2013-07-04 11:03:00,
2013-07-04 07:08:00,73.2,72.6,30.10,SE,144,0.0,5.0,98,0.00,,,0.01,49,Wunderground v.1.15,2013-07-04 11:08:00,
2013-07-04 07:13:00,73.3,72.7,30.10,SE,144,0.0,5.0,98,0.00,,,0.01,58,Wunderground v.1.15,2013-07-04 11:13:00,
2013-07-04 07:18:00,73.5,72.9,30.10,SE,144,0.0,5.0,98,0.00,,,0.01,62,Wunderground v.1.15,2013-07-04 11:18:00,
2013-07-04 07:24:00,73.7,73.1,30.10,SE,144,0.0,5.0,98,0.00,,,0.01,83,Wunderground v.1.15,2013-07-04 11:24:00,
2013-07-04 07:29:00,73.9,73.3,30.10,SE,144,0.0,5.0,98,0.00,,,0.01,90,Wunderground v.1.15,2013-07-04 11:29:00,
2013-07-04 07:34:00,74.0,73.4,30.10,SE,144,0.0,5.0,98,0.00,,,0.01,67,Wunderground v.1.15,2013-07-04 11:34:00,
2013-07-04 07:40:00,74.3,73.7,30.10,SE,144,0.0,5.0,98,0.00,,,0.01,56,Wunderground v.1.15,2013-07-04 11:40:00,
2013-07-04 07:45:00,74.4,73.8,30.10,SE,144,1.0,5.0,98,0.00,,,0.01,60,Wunderground v.1.15,2013-07-04 11:45:00,
2013-07-04 07:50:00,74.5,73.9,30.10,SE,144,1.0,1.0,98,0.00,,,0.01,62,Wunderground v.1.15,2013-07-04 11:50:00,
2013-07-04 07:56:00,74.7,74.1,30.10,SE,144,1.0,5.0,98,0.00,,,0.01,74,Wunderground v.1.15,2013-07-04 11:56:00,
2013-07-04 08:01:00,74.9,74.3,30.10,SE,144,2.0,5.0,98,0.00,,,0.01,114,Wunderground v.1.15,2013-07-04 12:01:00,
2013-07-04 08:07:00,75.1,74.5,30.10,SE,144,3.0,5.0,98,0.00,,,0.01,216,Wunderground v.1.15,2013-07-04 12:07:00,
2013-07-04 08:13:00,75.5,74.9,30.11,SE,144,4.0,4.0,98,0.00,,,0.01,244,Wunderground v.1.15,2013-07-04 12:13:00,
2013-07-04 08:18:00,75.7,75.1,30.11,SE,144,3.0,4.0,98,0.00,,,0.01,253,Wunderground v.1.15,2013-07-04 12:18:00,
2013-07-04 08:23:00,76.0,75.4,30.11,SE,144,3.0,4.0,98,0.00,,,0.01,244,Wunderground v.1.15,2013-07-04 12:23:00,
2013-07-04 08:29:00,76.3,75.4,30.12,SE,144,4.0,7.0,97,0.00,,,0.01,385,Wunderground v.1.15,2013-07-04 12:29:00,
2013-07-04 08:34:00,76.5,75.6,30.11,SE,144,4.0,6.0,97,0.00,,,0.01,172,Wunderground v.1.15,2013-07-04 12:34:00,
2013-07-04 08:39:00,76.6,75.7,30.12,SE,142,5.0,10.0,97,0.00,,,0.01,244,Wunderground v.1.15,2013-07-04 12:39:00,
2013-07-04 08:45:00,76.9,75.7,30.12,SE,142,6.0,8.0,96,0.00,,,0.01,204,Wunderground v.1.15,2013-07-04 12:45:00,
2013-07-04 08:50:00,77.1,75.6,30.12,SE,133,5.0,5.0,95,0.00,,,0.01,315,Wunderground v.1.15,2013-07-04 12:50:00,
2013-07-04 08:55:00,77.7,76.2,30.12,SE,128,5.0,6.0,95,0.00,,,0.01,362,Wunderground v.1.15,2013-07-04 12:55:00,
2013-07-04 09:00:00,78.2,76.3,30.12,SE,128,5.0,5.0,94,0.00,,,0.01,339,Wunderground v.1.15,2013-07-04 13:00:00,
2013-07-04 09:06:00,78.6,76.4,30.12,SE,142,5.0,8.0,93,0.00,,,0.01,121,Wunderground v.1.15,2013-07-04 13:06:00,
2013-07-04 09:11:00,78.8,76.3,30.12,SSE,149,6.0,8.0,92,0.00,,,0.01,401,Wunderground v.1.15,2013-07-04 13:11:00,
2013-07-04 09:17:00,79.2,76.3,30.12,SSE,149,5.0,8.0,91,0.00,,,0.01,227,Wunderground v.1.15,2013-07-04 13:17:00,
2013-07-04 09:22:00,79.5,76.6,30.12,SSE,153,7.0,9.0,91,0.00,,,0.01,492,Wunderground v.1.15,2013-07-04 13:22:00,
2013-07-04 09:27:00,80.0,77.1,30.12,SSE,155,8.0,9.0,91,0.00,,,0.01,517,Wunderground v.1.15,2013-07-04 13:27:00,
2013-07-04 09:32:00,80.3,77.1,30.12,SSE,165,9.0,12.0,90,0.00,,,0.01,517,Wunderground v.1.15,2013-07-04 13:32:00,
2013-07-04 09:38:00,80.6,77.4,30.12,SSE,151,10.0,14.0,90,0.00,,,0.01,497,Wunderground v.1.15,2013-07-04 13:38:00,
2013-07-04 09:43:00,80.9,77.4,30.12,SE,138,10.0,13.0,89,0.00,,,0.01,443,Wunderground v.1.15,2013-07-04 13:43:00,
2013-07-04 09:48:00,81.1,77.2,30.13,SSE,147,11.0,14.0,88,0.00,,,0.01,279,Wunderground v.1.15,2013-07-04 13:48:00,
2013-07-04 09:54:00,81.5,77.3,30.12,SSE,153,11.0,14.0,87,0.00,,,0.01,279,Wunderground v.1.15,2013-07-04 13:54:00,
2013-07-04 09:59:00,81.9,77.6,30.13,SSE,148,11.0,14.0,87,0.00,,,0.01,656,Wunderground v.1.15,2013-07-04 13:59:00,
2013-07-04 10:04:00,82.0,77.4,30.13,SSE,149,11.0,17.0,86,0.00,,,0.01,717,Wunderground v.1.15,2013-07-04 14:04:00,
2013-07-04 10:10:00,82.2,76.9,30.13,SE,138,13.0,18.0,84,0.00,,,0.01,197,Wunderground v.1.15,2013-07-04 14:10:00,
2013-07-04 10:15:00,82.4,77.4,30.13,SSE,159,14.0,18.0,85,0.00,,,0.01,786,Wunderground v.1.15,2013-07-04 14:15:00,
2013-07-04 10:20:00,82.6,77.3,30.13,SSE,163,14.0,18.0,84,0.00,,,0.01,835,Wunderground v.1.15,2013-07-04 14:20:00,
2013-07-04 10:26:00,83.2,77.9,30.12,SE,138,13.0,18.0,84,0.00,,,0.01,638,Wunderground v.1.15,2013-07-04 14:26:00,
2013-07-04 10:31:00,83.5,76.7,30.12,SSE,150,13.0,16.0,80,0.00,,,0.01,679,Wunderground v.1.15,2013-07-04 14:31:00,
2013-07-04 10:36:00,83.8,77.7,30.12,SSE,161,13.0,16.0,82,0.00,,,0.01,737,Wunderground v.1.15,2013-07-04 14:36:00,
2013-07-04 10:41:00,83.9,76.7,30.12,SE,144,14.0,19.0,79,0.00,,,0.01,773,Wunderground v.1.15,2013-07-04 14:41:00,
2013-07-04 10:47:00,84.1,77.3,30.12,SE,133,14.0,19.0,80,0.00,,,0.01,724,Wunderground v.1.15,2013-07-04 14:47:00,
2013-07-04 10:52:00,84.1,76.9,30.12,SSE,147,12.0,16.0,79,0.00,,,0.01,786,Wunderground v.1.15,2013-07-04 14:52:00,
2013-07-04 10:57:00,84.2,76.6,30.12,SE,146,12.0,16.0,78,0.00,,,0.01,833,Wunderground v.1.15,2013-07-04 14:57:00,
2013-07-04 11:03:00,84.3,76.7,30.12,SSE,150,13.0,19.0,78,0.00,,,0.01,802,Wunderground v.1.15,2013-07-04 15:03:00,
2013-07-04 11:08:00,84.7,76.3,30.12,SE,128,14.0,19.0,76,0.00,,,0.01,882,Wunderground v.1.15,2013-07-04 15:08:00,
2013-07-04 11:13:00,85.2,76.8,30.12,SSE,148,13.0,19.0,76,0.00,,,0.01,972,Wunderground v.1.15,2013-07-04 15:13:00,
2013-07-04 11:19:00,85.5,75.9,30.12,SE,144,13.0,19.0,73,0.00,,,0.01,1020,Wunderground v.1.15,2013-07-04 15:19:00,
2013-07-04 11:24:00,85.7,75.2,30.12,SE,128,14.0,19.0,71,0.00,,,0.01,879,Wunderground v.1.15,2013-07-04 15:24:00,
2013-07-04 11:29:00,86.0,75.5,30.12,SE,138,14.0,21.0,71,0.00,,,0.01,893,Wunderground v.1.15,2013-07-04 15:29:00,
2013-07-04 11:34:00,86.3,75.8,30.12,SE,138,14.0,19.0,71,0.00,,,0.01,889,Wunderground v.1.15,2013-07-04 15:34:00,
2013-07-04 11:40:00,86.4,75.9,30.12,SSE,157,14.0,20.0,71,0.00,,,0.01,911,Wunderground v.1.15,2013-07-04 15:40:00,
2013-07-04 11:45:00,86.2,75.3,30.12,SE,133,15.0,20.0,70,0.00,,,0.01,889,Wunderground v.1.15,2013-07-04 15:45:00,
2013-07-04 11:50:00,86.5,75.5,30.12,ESE,109,15.0,15.0,70,0.00,,,0.01,942,Wunderground v.1.15,2013-07-04 15:50:00,
2013-07-04 11:56:00,87.0,75.6,30.11,SSE,159,12.0,19.0,69,0.00,,,0.01,976,Wunderground v.1.15,2013-07-04 15:56:00,
2013-07-04 12:01:00,86.8,76.3,30.12,SSE,150,14.0,22.0,71,0.00,,,0.01,976,Wunderground v.1.15,2013-07-04 16:01:00,
2013-07-04 12:07:00,86.0,75.5,30.12,SE,142,16.0,22.0,71,0.00,,,0.01,1127,Wunderground v.1.15,2013-07-04 16:07:00,
2013-07-04 12:12:00,86.1,75.6,30.12,SE,142,16.0,22.0,71,0.00,,,0.01,1053,Wunderground v.1.15,2013-07-04 16:12:00,
2013-07-04 12:17:00,86.4,75.5,30.11,ESE,118,14.0,22.0,70,0.00,,,0.01,998,Wunderground v.1.15,2013-07-04 16:17:00,
2013-07-04 12:23:00,86.9,75.9,30.11,SE,146,13.0,22.0,70,0.00,,,0.01,1032,Wunderground v.1.15,2013-07-04 16:23:00,
2013-07-04 12:29:00,87.3,76.3,30.11,SE,146,13.0,22.0,70,0.00,,,0.01,956,Wunderground v.1.15,2013-07-04 16:29:00,
2013-07-04 12:34:00,87.1,75.7,30.11,SSE,154,14.0,22.0,69,0.00,,,0.01,1146,Wunderground v.1.15,2013-07-04 16:34:00,
2013-07-04 12:39:00,87.1,75.3,30.11,SSE,150,15.0,22.0,68,0.00,,,0.01,1044,Wunderground v.1.15,2013-07-04 16:39:00,
2013-07-04 12:45:00,87.4,75.5,30.11,SSE,149,13.0,22.0,68,0.00,,,0.01,997,Wunderground v.1.15,2013-07-04 16:45:00,
2013-07-04 12:50:00,87.5,75.6,30.11,SE,142,14.0,22.0,68,0.00,,,0.01,1009,Wunderground v.1.15,2013-07-04 16:50:00,
2013-07-04 12:55:00,87.6,75.3,30.11,SE,138,14.0,22.0,67,0.00,,,0.01,949,Wunderground v.1.15,2013-07-04 16:55:00,
2013-07-04 13:01:00,87.5,75.6,30.11,SE,138,13.0,23.0,68,0.00,,,0.01,863,Wunderground v.1.15,2013-07-04 17:01:00,
2013-07-04 13:06:00,87.2,75.8,30.10,SSE,149,13.0,23.0,69,0.00,,,0.01,875,Wunderground v.1.15,2013-07-04 17:06:00,
2013-07-04 13:11:00,87.1,75.7,30.10,SSE,155,13.0,23.0,69,0.00,,,0.01,457,Wunderground v.1.15,2013-07-04 17:11:00,
2013-07-04 13:17:00,87.5,75.6,30.11,SE,143,12.0,23.0,68,0.00,,,0.01,1009,Wunderground v.1.15,2013-07-04 17:17:00,
2013-07-04 13:22:00,87.5,77.4,30.10,SSE,159,14.0,23.0,72,0.00,,,0.01,1039,Wunderground v.1.15,2013-07-04 17:22:00,
2013-07-04 13:27:00,87.0,76.0,30.10,SSE,153,15.0,23.0,70,0.00,,,0.01,1021,Wunderground v.1.15,2013-07-04 17:27:00,
2013-07-04 13:33:00,87.1,75.7,30.10,SE,143,15.0,23.0,69,0.00,,,0.01,411,Wunderground v.1.15,2013-07-04 17:33:00,
2013-07-04 13:38:00,87.2,76.2,30.10,SSE,152,14.0,23.0,70,0.00,,,0.01,963,Wunderground v.1.15,2013-07-04 17:38:00,
2013-07-04 13:43:00,87.4,75.5,30.10,SE,133,12.0,23.0,68,0.00,,,0.01,390,Wunderground v.1.15,2013-07-04 17:43:00,
2013-07-04 13:48:00,87.6,75.7,30.10,SE,146,12.0,23.0,68,0.00,,,0.01,896,Wunderground v.1.15,2013-07-04 17:48:00,
2013-07-04 13:54:00,87.7,76.7,30.09,SSE,161,14.0,23.0,70,0.00,,,0.01,731,Wunderground v.1.15,2013-07-04 17:54:00,
2013-07-04 13:59:00,87.4,75.1,30.09,SE,144,15.0,23.0,67,0.00,,,0.01,751,Wunderground v.1.15,2013-07-04 17:59:00,
2013-07-04 14:05:00,87.7,74.9,30.09,SSE,156,14.0,21.0,66,0.00,,,0.01,940,Wunderground v.1.15,2013-07-04 18:05:00,
2013-07-04 14:10:00,87.7,76.3,30.09,SSE,152,13.0,13.0,69,0.00,,,0.01,742,Wunderground v.1.15,2013-07-04 18:10:00,
2013-07-04 14:15:00,87.8,76.8,30.09,SSE,158,13.0,21.0,70,0.00,,,0.01,703,Wunderground v.1.15,2013-07-04 18:15:00,
2013-07-04 14:21:00,87.7,76.3,30.08,SSE,148,12.0,21.0,69,0.00,,,0.01,668,Wunderground v.1.15,2013-07-04 18:21:00,
2013-07-04 14:26:00,87.7,76.3,30.08,SSE,147,13.0,21.0,69,0.00,,,0.01,436,Wunderground v.1.15,2013-07-04 18:26:00,
2013-07-04 14:31:00,87.9,76.5,30.09,SSE,152,12.0,21.0,69,0.00,,,0.01,854,Wunderground v.1.15,2013-07-04 18:31:00,
2013-07-04 14:36:00,88.0,76.1,30.09,SSE,151,13.0,21.0,68,0.00,,,0.01,1171,Wunderground v.1.15,2013-07-04 18:36:00,
2013-07-04 14:42:00,88.5,76.1,30.08,SSE,152,14.0,18.0,67,0.00,,,0.01,1104,Wunderground v.1.15,2013-07-04 18:42:00,
2013-07-04 14:47:00,88.8,75.5,30.08,SE,138,14.0,21.0,65,0.00,,,0.01,909,Wunderground v.1.15,2013-07-04 18:47:00,
2013-07-04 14:52:00,88.9,76.1,30.08,SSE,154,15.0,21.0,66,0.00,,,0.01,926,Wunderground v.1.15,2013-07-04 18:52:00,
2013-07-04 14:58:00,88.4,76.0,30.08,SSE,147,16.0,21.0,67,0.00,,,0.01,1090,Wunderground v.1.15,2013-07-04 18:58:00,
2013-07-04 15:03:00,88.3,75.9,30.08,ESE,112,15.0,22.0,67,0.00,,,0.01,315,Wunderground v.1.15,2013-07-04 19:03:00,
2013-07-04 15:08:00,88.6,75.8,30.08,SSE,152,14.0,22.0,66,0.00,,,0.01,921,Wunderground v.1.15,2013-07-04 19:08:00,
2013-07-04 15:14:00,88.7,76.3,30.07,SSE,163,13.0,22.0,67,0.00,,,0.01,962,Wunderground v.1.15,2013-07-04 19:14:00,
2013-07-04 15:19:00,88.4,76.0,30.07,SE,128,13.0,22.0,67,0.00,,,0.01,647,Wunderground v.1.15,2013-07-04 19:19:00,
2013-07-04 15:24:00,87.8,77.6,30.07,SE,146,14.0,22.0,72,0.00,,,0.01,155,Wunderground v.1.15,2013-07-04 19:24:00,
2013-07-04 15:30:00,86.6,76.9,30.07,SW,217,13.0,22.0,73,0.00,,,0.02,79,Wunderground v.1.15,2013-07-04 19:30:00,
2013-07-04 15:35:00,85.0,77.4,30.08,SSW,198,14.0,22.0,78,0.00,,,0.02,98,Wunderground v.1.15,2013-07-04 19:35:00,
2013-07-04 15:41:00,83.9,76.7,30.07,SSW,210,14.0,22.0,79,0.38,,,0.04,155,Wunderground v.1.15,2013-07-04 19:41:00,
2013-07-04 15:46:00,83.3,75.7,30.08,SSW,210,15.0,22.0,78,0.09,,,0.04,455,Wunderground v.1.15,2013-07-04 19:46:00,
2013-07-04 15:51:00,83.0,75.4,30.08,SSW,204,15.0,22.0,78,0.05,,,0.04,673,Wunderground v.1.15,2013-07-04 19:51:00,
2013-07-04 15:56:00,83.0,75.8,30.08,South,175,11.0,22.0,79,0.04,,,0.04,253,Wunderground v.1.15,2013-07-04 19:56:00,
2013-07-04 16:02:00,83.0,76.2,30.07,South,186,7.0,23.0,80,0.00,,,0.04,476,Wunderground v.1.15,2013-07-04 20:02:00,
2013-07-04 16:07:00,83.1,76.3,30.07,South,180,6.0,23.0,80,0.00,,,0.04,443,Wunderground v.1.15,2013-07-04 20:07:00,
2013-07-04 16:13:00,83.4,77.0,30.06,South,169,5.0,23.0,81,0.00,,,0.04,543,Wunderground v.1.15,2013-07-04 20:13:00,
2013-07-04 16:19:00,84.0,77.2,30.06,SSE,165,6.0,23.0,80,0.00,,,0.04,306,Wunderground v.1.15,2013-07-04 20:19:00,
2013-07-04 16:24:00,84.5,77.3,30.06,SSE,153,7.0,23.0,79,0.00,,,0.04,227,Wunderground v.1.15,2013-07-04 20:24:00,
2013-07-04 16:30:00,84.7,77.1,30.06,SSE,167,7.0,23.0,78,0.00,,,0.04,211,Wunderground v.1.15,2013-07-04 20:30:00,
2013-07-04 16:35:00,84.8,77.6,30.06,SSE,154,6.0,23.0,79,0.00,,,0.04,197,Wunderground v.1.15,2013-07-04 20:35:00,
2013-07-04 16:40:00,84.8,77.6,30.06,SE,128,5.0,23.0,79,0.00,,,0.04,86,Wunderground v.1.15,2013-07-04 20:40:00,
2013-07-04 16:45:00,83.9,77.4,30.07,SSE,160,8.0,23.0,81,0.31,,,0.07,74,Wunderground v.1.15,2013-07-04 20:45:00,
2013-07-04 16:51:00,82.7,78.1,30.07,South,171,10.0,23.0,86,0.09,,,0.07,144,Wunderground v.1.15,2013-07-04 20:51:00,
2013-07-04 16:56:00,82.2,77.9,30.07,SSE,165,8.0,23.0,87,0.05,,,0.07,158,Wunderground v.1.15,2013-07-04 20:56:00,
2013-07-04 17:01:00,82.1,78.2,30.07,SSE,168,7.0,21.0,88,0.04,,,0.07,151,Wunderground v.1.15,2013-07-04 21:01:00,
2013-07-04 17:07:00,82.1,78.5,30.07,SSW,193,7.0,21.0,89,0.00,,,0.07,149,Wunderground v.1.15,2013-07-04 21:07:00,
2013-07-04 17:12:00,82.1,78.5,30.07,SSW,196,7.0,21.0,89,0.00,,,0.07,151,Wunderground v.1.15,2013-07-04 21:12:00,
2013-07-04 17:17:00,81.9,78.0,30.07,South,186,6.0,21.0,88,0.00,,,0.07,163,Wunderground v.1.15,2013-07-04 21:17:00,
2013-07-04 17:23:00,81.8,76.8,30.07,South,184,6.0,21.0,85,0.00,,,0.07,186,Wunderground v.1.15,2013-07-04 21:23:00,
2013-07-04 17:28:00,81.8,76.1,30.07,South,184,6.0,21.0,83,0.00,,,0.07,197,Wunderground v.1.15,2013-07-04 21:28:00,
2013-07-04 17:33:00,82.0,76.0,30.07,South,179,6.0,21.0,82,0.00,,,0.07,193,Wunderground v.1.15,2013-07-04 21:33:00,
2013-07-04 17:39:00,82.1,75.7,30.07,South,179,5.0,21.0,81,0.00,,,0.07,188,Wunderground v.1.15,2013-07-04 21:39:00,
2013-07-04 17:44:00,82.1,75.3,30.07,South,178,4.0,21.0,80,0.00,,,0.07,183,Wunderground v.1.15,2013-07-04 21:44:00,
2013-07-04 17:49:00,82.1,75.7,30.07,South,178,3.0,21.0,81,0.00,,,0.07,174,Wunderground v.1.15,2013-07-04 21:49:00,
2013-07-04 17:55:00,82.0,75.6,30.07,South,178,2.0,21.0,81,0.00,,,0.07,172,Wunderground v.1.15,2013-07-04 21:55:00,
2013-07-04 18:00:00,82.1,76.4,30.07,South,178,1.0,1.0,83,0.00,,,0.07,174,Wunderground v.1.15,2013-07-04 22:00:00,
2013-07-04 18:05:00,82.1,76.4,30.07,South,178,1.0,19.0,83,0.00,,,0.07,134,Wunderground v.1.15,2013-07-04 22:05:00,
2013-07-04 18:11:00,82.1,76.1,30.08,South,178,0.0,19.0,82,0.00,,,0.08,97,Wunderground v.1.15,2013-07-04 22:11:00,
2013-07-04 18:16:00,82.1,77.1,30.09,SSE,163,2.0,19.0,85,0.16,,,0.09,58,Wunderground v.1.15,2013-07-04 22:16:00,
2013-07-04 18:21:00,81.9,78.0,30.10,South,188,7.0,19.0,88,2.78,,,0.15,19,Wunderground v.1.15,2013-07-04 22:21:00,
2013-07-04 18:27:00,78.5,73.6,30.11,SSW,207,18.0,30.0,85,1.17,,,0.35,5,Wunderground v.1.15,2013-07-04 22:27:00,
2013-07-04 18:32:00,76.7,73.9,30.12,South,174,24.0,29.0,91,4.06,,,0.50,5,Wunderground v.1.15,2013-07-04 22:32:00,
2013-07-04 18:37:00,74.7,70.6,30.12,SE,128,20.0,29.0,87,2.43,,,0.64,5,Wunderground v.1.15,2013-07-04 22:37:00,
2013-07-04 18:43:00,72.8,68.7,30.10,ESE,105,10.0,19.0,87,1.31,,,0.81,7,Wunderground v.1.15,2013-07-04 22:43:00,
2013-07-04 18:48:00,71.9,68.8,30.11,ESE,105,4.0,19.0,90,0.57,,,0.87,11,Wunderground v.1.15,2013-07-04 22:48:00,
2013-07-04 18:53:00,71.3,68.5,30.11,East,86,2.0,19.0,91,0.19,,,0.88,9,Wunderground v.1.15,2013-07-04 22:53:00,
2013-07-04 18:59:00,71.0,68.6,30.12,ENE,78,2.0,19.0,92,0.13,,,0.89,0,Wunderground v.1.15,2013-07-04 22:59:00,
2013-07-04 19:04:00,70.8,68.7,30.12,East,79,1.0,19.0,93,0.06,,,0.89,5,Wunderground v.1.15,2013-07-04 23:04:00,
2013-07-04 19:09:00,70.8,68.7,30.11,East,79,1.0,19.0,93,0.05,,,0.90,7,Wunderground v.1.15,2013-07-04 23:09:00,
2013-07-04 19:14:00,71.1,69.3,30.12,East,85,2.0,19.0,94,0.05,,,0.90,7,Wunderground v.1.15,2013-07-04 23:14:00,
2013-07-04 19:20:00,71.5,70.0,30.12,East,86,4.0,4.0,95,0.05,,,0.91,9,Wunderground v.1.15,2013-07-04 23:20:00,
2013-07-04 19:25:00,71.8,70.3,30.11,East,89,3.0,19.0,95,0.24,,,0.94,12,Wunderground v.1.15,2013-07-04 23:25:00,
2013-07-04 19:30:00,72.1,70.6,30.11,East,89,2.0,2.0,95,0.10,,,0.94,12,Wunderground v.1.15,2013-07-04 23:30:00,
2013-07-04 19:36:00,72.5,71.3,30.10,East,90,0.0,19.0,96,0.05,,,0.94,11,Wunderground v.1.15,2013-07-04 23:36:00,
2013-07-04 19:41:00,72.6,71.1,30.11,East,89,0.0,19.0,95,0.04,,,0.94,11,Wunderground v.1.15,2013-07-04 23:41:00,
2013-07-04 19:46:00,72.7,71.2,30.12,East,90,0.0,19.0,95,0.00,,,0.94,9,Wunderground v.1.15,2013-07-04 23:46:00,
2013-07-04 19:52:00,72.8,71.6,30.12,East,89,0.0,19.0,96,0.00,,,0.94,7,Wunderground v.1.15,2013-07-04 23:52:00,
2013-07-04 19:57:00,72.9,71.7,30.12,East,89,2.0,19.0,96,0.00,,,0.94,7,Wunderground v.1.15,2013-07-04 23:57:00,
2013-07-04 20:02:00,73.0,71.8,30.12,East,90,3.0,19.0,96,0.00,,,0.94,5,Wunderground v.1.15,2013-07-05 00:02:00,
2013-07-04 20:07:00,73.1,71.9,30.12,East,89,1.0,19.0,96,0.00,,,0.94,5,Wunderground v.1.15,2013-07-05 00:07:00,
2013-07-04 20:13:00,73.2,72.0,30.12,East,90,0.0,19.0,96,0.00,,,0.94,0,Wunderground v.1.15,2013-07-05 00:13:00,
2013-07-04 20:18:00,73.3,72.1,30.11,East,89,0.0,19.0,96,0.00,,,0.94,0,Wunderground v.1.15,2013-07-05 00:18:00,
2013-07-04 20:23:00,73.3,72.1,30.11,East,90,1.0,19.0,96,0.00,,,0.94,0,Wunderground v.1.15,2013-07-05 00:23:00,
2013-07-04 20:29:00,73.4,72.2,30.11,East,89,3.0,19.0,96,0.00,,,0.94,0,Wunderground v.1.15,2013-07-05 00:29:00,
2013-07-04 20:34:00,73.6,72.4,30.11,East,89,4.0,19.0,96,0.00,,,0.95,0,Wunderground v.1.15,2013-07-05 00:34:00,
2013-07-04 20:39:00,73.8,72.9,30.11,East,89,4.0,19.0,97,0.00,,,0.95,0,Wunderground v.1.15,2013-07-05 00:39:00,
2013-07-04 20:44:00,74.0,72.8,30.11,East,88,3.0,19.0,96,0.00,,,0.95,0,Wunderground v.1.15,2013-07-05 00:44:00,
2013-07-04 20:50:00,74.1,72.9,30.12,East,88,2.0,19.0,96,0.00,,,0.95,0,Wunderground v.1.15,2013-07-05 00:50:00,
2013-07-04 20:55:00,74.2,73.0,30.12,East,88,2.0,19.0,96,0.00,,,0.95,0,Wunderground v.1.15,2013-07-05 00:55:00,
2013-07-04 21:00:00,74.3,73.4,30.12,East,88,1.0,19.0,97,0.00,,,0.95,0,Wunderground v.1.15,2013-07-05 01:00:00,
2013-07-04 21:06:00,74.5,73.6,30.12,East,88,1.0,19.0,97,0.00,,,0.95,0,Wunderground v.1.15,2013-07-05 01:06:00,
2013-07-04 21:11:00,74.5,73.6,30.12,East,89,0.0,19.0,97,0.00,,,0.95,0,Wunderground v.1.15,2013-07-05 01:11:00,
2013-07-04 21:16:00,74.5,73.6,30.13,East,89,0.0,19.0,97,0.00,,,0.95,0,Wunderground v.1.15,2013-07-05 01:16:00,
2013-07-04 21:22:00,74.6,73.7,30.13,East,89,0.0,19.0,97,0.00,,,0.95,0,Wunderground v.1.15,2013-07-05 01:22:00,
2013-07-04 21:27:00,74.6,73.7,30.13,East,89,0.0,19.0,97,0.00,,,0.95,0,Wunderground v.1.15,2013-07-05 01:27:00,
2013-07-04 21:32:00,74.7,73.8,30.13,East,88,0.0,19.0,97,0.00,,,0.95,0,Wunderground v.1.15,2013-07-05 01:32:00,
2013-07-04 21:38:00,74.8,73.9,30.13,East,88,0.0,19.0,97,0.00,,,0.95,0,Wunderground v.1.15,2013-07-05 01:38:00,
2013-07-04 21:43:00,74.9,74.0,30.13,East,89,0.0,19.0,97,0.00,,,0.95,0,Wunderground v.1.15,2013-07-05 01:43:00,
2013-07-04 21:48:00,74.8,73.9,30.13,East,89,0.0,19.0,97,0.00,,,0.95,0,Wunderground v.1.15,2013-07-05 01:48:00,
2013-07-04 21:53:00,74.9,74.0,30.13,East,89,1.0,19.0,97,0.00,,,0.95,0,Wunderground v.1.15,2013-07-05 01:53:00,
2013-07-04 21:59:00,74.9,74.0,30.13,East,89,2.0,19.0,97,0.00,,,0.95,0,Wunderground v.1.15,2013-07-05 01:59:00,
2013-07-04 22:04:00,74.8,73.9,30.13,East,88,2.0,19.0,97,0.00,,,0.95,0,Wunderground v.1.15,2013-07-05 02:04:00,
2013-07-04 22:09:00,74.8,73.9,30.13,East,88,2.0,19.0,97,0.00,,,0.95,0,Wunderground v.1.15,2013-07-05 02:09:00,
2013-07-04 22:15:00,74.8,73.9,30.13,East,89,2.0,19.0,97,0.00,,,0.95,0,Wunderground v.1.15,2013-07-05 02:15:00,
2013-07-04 22:20:00,74.8,73.9,30.13,East,89,3.0,19.0,97,0.00,,,0.95,0,Wunderground v.1.15,2013-07-05 02:20:00,
2013-07-04 22:25:00,74.8,73.9,30.13,East,89,3.0,19.0,97,0.00,,,0.95,0,Wunderground v.1.15,2013-07-05 02:25:00,
2013-07-04 22:30:00,74.9,74.0,30.13,East,89,3.0,3.0,97,0.00,,,0.95,0,Wunderground v.1.15,2013-07-05 02:30:00,
2013-07-04 22:36:00,74.9,74.0,30.13,East,89,2.0,19.0,97,0.00,,,0.95,0,Wunderground v.1.15,2013-07-05 02:36:00,
2013-07-04 22:41:00,74.9,74.0,30.13,East,88,3.0,3.0,97,0.00,,,0.95,0,Wunderground v.1.15,2013-07-05 02:41:00,
2013-07-04 22:47:00,75.0,74.1,30.14,East,89,3.0,4.0,97,0.00,,,0.95,0,Wunderground v.1.15,2013-07-05 02:47:00,
2013-07-04 22:52:00,75.1,74.2,30.14,East,89,3.0,5.0,97,0.00,,,0.95,0,Wunderground v.1.15,2013-07-05 02:52:00,
2013-07-04 22:57:00,75.1,74.2,30.14,East,89,3.0,5.0,97,0.00,,,0.95,0,Wunderground v.1.15,2013-07-05 02:57:00,
2013-07-04 23:03:00,75.2,74.3,30.14,East,89,3.0,5.0,97,0.00,,,0.95,0,Wunderground v.1.15,2013-07-05 03:03:00,
2013-07-04 23:08:00,75.1,74.2,30.14,East,89,2.0,5.0,97,0.00,,,0.95,0,Wunderground v.1.15,2013-07-05 03:08:00,
2013-07-04 23:13:00,75.0,74.1,30.14,East,89,1.0,5.0,97,0.00,,,0.95,0,Wunderground v.1.15,2013-07-05 03:13:00,
2013-07-04 23:19:00,75.0,74.1,30.14,East,89,0.0,5.0,97,0.00,,,0.95,0,Wunderground v.1.15,2013-07-05 03:19:00,
2013-07-04 23:25:00,74.9,74.0,30.14,East,89,1.0,5.0,97,0.00,,,0.95,0,Wunderground v.1.15,2013-07-05 03:25:00,
2013-07-04 23:30:00,74.9,74.0,30.14,East,89,2.0,5.0,97,0.00,,,0.95,0,Wunderground v.1.15,2013-07-05 03:30:00,
2013-07-04 23:35:00,74.9,74.0,30.14,East,89,3.0,5.0,97,0.00,,,0.95,0,Wunderground v.1.15,2013-07-05 03:35:00,
2013-07-04 23:40:00,74.8,73.9,30.14,East,92,3.0,6.0,97,0.00,,,0.95,0,Wunderground v.1.15,2013-07-05 03:40:00,
2013-07-04 23:46:00,74.7,73.8,30.14,East,97,3.0,6.0,97,0.00,,,0.95,0,Wunderground v.1.15,2013-07-05 03:46:00,
2013-07-04 23:51:00,74.6,73.7,30.14,East,97,2.0,4.0,97,0.00,,,0.95,0,Wunderground v.1.15,2013-07-05 03:51:00,
2013-07-04 23:57:00,74.5,73.6,30.14,East,97,2.0,4.0,97,0.00,,,0.95,0,Wunderground v.1.15,2013-07-05 03:57:00,